sensor_id;sensor_type;location;lat;lon;timestamp;P1;durP1;ratioP1;P2;durP2;ratioP2
43580;SDS011;29175;51.030;4.606;2024-02-28T00:01:51;42.25;;;19.23;;
43580;SDS011;29175;51.030;4.606;2024-02-28T00:04:18;51.92;;;20.75;;
43580;SDS011;29175;51.030;4.606;2024-02-28T00:06:47;45.40;;;19.73;;
43580;SDS011;29175;51.030;4.606;2024-02-28T00:09:16;37.40;;;17.05;;
43580;SDS011;29175;51.030;4.606;2024-02-28T00:11:45;47.38;;;21.23;;
43580;SDS011;29175;51.030;4.606;2024-02-28T00:14:12;48.85;;;21.33;;
43580;SDS011;29175;51.030;4.606;2024-02-28T00:16:44;48.00;;;20.80;;
43580;SDS011;29175;51.030;4.606;2024-02-28T00:19:12;45.13;;;19.25;;
43580;SDS011;29175;51.030;4.606;2024-02-28T00:21:41;46.15;;;19.42;;
43580;SDS011;29175;51.030;4.606;2024-02-28T00:24:08;45.60;;;19.75;;
43580;SDS011;29175;51.030;4.606;2024-02-28T00:26:35;47.88;;;21.67;;
43580;SDS011;29175;51.030;4.606;2024-02-28T00:29:02;49.22;;;19.25;;
43580;SDS011;29175;51.030;4.606;2024-02-28T00:31:30;44.03;;;19.65;;
43580;SDS011;29175;51.030;4.606;2024-02-28T00:33:57;42.92;;;18.83;;
43580;SDS011;29175;51.030;4.606;2024-02-28T00:36:24;48.35;;;20.05;;
43580;SDS011;29175;51.030;4.606;2024-02-28T00:38:50;41.13;;;17.92;;
43580;SDS011;29175;51.030;4.606;2024-02-28T00:41:15;43.88;;;18.50;;
43580;SDS011;29175;51.030;4.606;2024-02-28T00:43:41;44.53;;;18.48;;
43580;SDS011;29175;51.030;4.606;2024-02-28T00:46:07;46.50;;;18.73;;
43580;SDS011;29175;51.030;4.606;2024-02-28T00:48:39;40.13;;;18.55;;
43580;SDS011;29175;51.030;4.606;2024-02-28T00:51:05;43.63;;;20.05;;
43580;SDS011;29175;51.030;4.606;2024-02-28T00:53:35;41.17;;;18.98;;
43580;SDS011;29175;51.030;4.606;2024-02-28T00:56:01;44.17;;;18.60;;
43580;SDS011;29175;51.030;4.606;2024-02-28T00:58:28;41.13;;;19.25;;
43580;SDS011;29175;51.030;4.606;2024-02-28T01:00:57;44.83;;;19.75;;
43580;SDS011;29175;51.030;4.606;2024-02-28T01:03:22;41.00;;;18.95;;
43580;SDS011;29175;51.030;4.606;2024-02-28T01:05:49;37.28;;;18.83;;
43580;SDS011;29175;51.030;4.606;2024-02-28T01:08:17;40.40;;;18.70;;
43580;SDS011;29175;51.030;4.606;2024-02-28T01:10:44;42.33;;;20.33;;
43580;SDS011;29175;51.030;4.606;2024-02-28T01:13:12;42.03;;;19.45;;
43580;SDS011;29175;51.030;4.606;2024-02-28T01:15:41;44.83;;;19.48;;
43580;SDS011;29175;51.030;4.606;2024-02-28T01:18:08;48.80;;;19.15;;
43580;SDS011;29175;51.030;4.606;2024-02-28T01:20:36;41.90;;;18.70;;
43580;SDS011;29175;51.030;4.606;2024-02-28T01:23:02;38.40;;;17.02;;
43580;SDS011;29175;51.030;4.606;2024-02-28T01:25:29;43.05;;;18.45;;
43580;SDS011;29175;51.030;4.606;2024-02-28T01:27:55;36.35;;;18.25;;
43580;SDS011;29175;51.030;4.606;2024-02-28T01:30:24;38.50;;;17.40;;
43580;SDS011;29175;51.030;4.606;2024-02-28T01:32:51;43.08;;;18.10;;
43580;SDS011;29175;51.030;4.606;2024-02-28T01:35:16;39.22;;;17.92;;
43580;SDS011;29175;51.030;4.606;2024-02-28T01:37:43;41.10;;;20.08;;
43580;SDS011;29175;51.030;4.606;2024-02-28T01:40:09;53.47;;;22.02;;
43580;SDS011;29175;51.030;4.606;2024-02-28T01:42:38;48.42;;;20.75;;
43580;SDS011;29175;51.030;4.606;2024-02-28T01:45:04;47.47;;;20.70;;
43580;SDS011;29175;51.030;4.606;2024-02-28T01:47:31;43.47;;;20.10;;
43580;SDS011;29175;51.030;4.606;2024-02-28T01:50:00;42.78;;;20.02;;
43580;SDS011;29175;51.030;4.606;2024-02-28T01:52:25;44.80;;;19.35;;
43580;SDS011;29175;51.030;4.606;2024-02-28T01:54:52;44.17;;;18.38;;
43580;SDS011;29175;51.030;4.606;2024-02-28T01:57:17;42.63;;;19.52;;
43580;SDS011;29175;51.030;4.606;2024-02-28T01:59:43;41.65;;;19.42;;
43580;SDS011;29175;51.030;4.606;2024-02-28T02:02:11;43.53;;;18.77;;
43580;SDS011;29175;51.030;4.606;2024-02-28T02:04:39;38.45;;;18.20;;
43580;SDS011;29175;51.030;4.606;2024-02-28T02:07:06;43.40;;;19.05;;
43580;SDS011;29175;51.030;4.606;2024-02-28T02:09:34;44.58;;;20.08;;
43580;SDS011;29175;51.030;4.606;2024-02-28T02:12:02;44.63;;;19.58;;
43580;SDS011;29175;51.030;4.606;2024-02-28T02:14:28;41.78;;;18.73;;
43580;SDS011;29175;51.030;4.606;2024-02-28T02:16:56;47.28;;;19.98;;
43580;SDS011;29175;51.030;4.606;2024-02-28T02:19:22;52.80;;;20.90;;
43580;SDS011;29175;51.030;4.606;2024-02-28T02:21:59;42.95;;;18.70;;
43580;SDS011;29175;51.030;4.606;2024-02-28T02:24:29;47.70;;;20.55;;
43580;SDS011;29175;51.030;4.606;2024-02-28T02:26:59;45.70;;;20.70;;
43580;SDS011;29175;51.030;4.606;2024-02-28T02:29:26;42.53;;;19.58;;
43580;SDS011;29175;51.030;4.606;2024-02-28T02:31:53;49.65;;;19.02;;
43580;SDS011;29175;51.030;4.606;2024-02-28T02:34:21;44.08;;;19.13;;
43580;SDS011;29175;51.030;4.606;2024-02-28T02:36:47;41.65;;;18.20;;
43580;SDS011;29175;51.030;4.606;2024-02-28T02:39:14;42.38;;;17.80;;
43580;SDS011;29175;51.030;4.606;2024-02-28T02:41:40;51.60;;;20.92;;
43580;SDS011;29175;51.030;4.606;2024-02-28T02:44:07;53.55;;;19.80;;
43580;SDS011;29175;51.030;4.606;2024-02-28T02:46:34;44.85;;;20.02;;
43580;SDS011;29175;51.030;4.606;2024-02-28T02:49:00;40.85;;;19.10;;
43580;SDS011;29175;51.030;4.606;2024-02-28T02:51:29;44.78;;;20.05;;
43580;SDS011;29175;51.030;4.606;2024-02-28T02:53:56;36.22;;;14.85;;
43580;SDS011;29175;51.030;4.606;2024-02-28T02:56:23;45.08;;;18.40;;
43580;SDS011;29175;51.030;4.606;2024-02-28T02:58:49;46.75;;;18.42;;
43580;SDS011;29175;51.030;4.606;2024-02-28T03:01:15;46.50;;;19.65;;
43580;SDS011;29175;51.030;4.606;2024-02-28T03:03:44;45.60;;;19.25;;
43580;SDS011;29175;51.030;4.606;2024-02-28T03:06:10;41.87;;;18.63;;
43580;SDS011;29175;51.030;4.606;2024-02-28T03:08:36;44.00;;;19.55;;
43580;SDS011;29175;51.030;4.606;2024-02-28T03:11:05;49.25;;;19.08;;
43580;SDS011;29175;51.030;4.606;2024-02-28T03:13:36;45.75;;;19.30;;
43580;SDS011;29175;51.030;4.606;2024-02-28T03:16:05;44.07;;;19.23;;
43580;SDS011;29175;51.030;4.606;2024-02-28T03:18:32;45.58;;;19.85;;
43580;SDS011;29175;51.030;4.606;2024-02-28T03:20:59;38.38;;;18.17;;
43580;SDS011;29175;51.030;4.606;2024-02-28T03:23:24;42.70;;;19.70;;
43580;SDS011;29175;51.030;4.606;2024-02-28T03:25:53;42.17;;;18.75;;
43580;SDS011;29175;51.030;4.606;2024-02-28T03:28:25;42.87;;;17.90;;
43580;SDS011;29175;51.030;4.606;2024-02-28T03:30:54;53.25;;;21.38;;
43580;SDS011;29175;51.030;4.606;2024-02-28T03:33:20;52.57;;;21.03;;
43580;SDS011;29175;51.030;4.606;2024-02-28T03:35:47;44.40;;;19.40;;
43580;SDS011;29175;51.030;4.606;2024-02-28T03:38:13;47.38;;;18.92;;
43580;SDS011;29175;51.030;4.606;2024-02-28T03:40:39;40.88;;;19.58;;
43580;SDS011;29175;51.030;4.606;2024-02-28T03:43:08;43.70;;;18.65;;
43580;SDS011;29175;51.030;4.606;2024-02-28T03:45:37;46.22;;;19.30;;
43580;SDS011;29175;51.030;4.606;2024-02-28T03:48:12;42.20;;;17.25;;
43580;SDS011;29175;51.030;4.606;2024-02-28T03:50:41;45.83;;;18.35;;
43580;SDS011;29175;51.030;4.606;2024-02-28T03:53:10;47.83;;;17.92;;
43580;SDS011;29175;51.030;4.606;2024-02-28T03:55:35;41.00;;;19.27;;
43580;SDS011;29175;51.030;4.606;2024-02-28T04:00:34;49.95;;;19.33;;
43580;SDS011;29175;51.030;4.606;2024-02-28T04:03:02;48.67;;;20.85;;
43580;SDS011;29175;51.030;4.606;2024-02-28T04:05:28;48.70;;;19.00;;
43580;SDS011;29175;51.030;4.606;2024-02-28T04:10:25;45.63;;;19.93;;
43580;SDS011;29175;51.030;4.606;2024-02-28T04:12:51;49.17;;;19.55;;
43580;SDS011;29175;51.030;4.606;2024-02-28T04:15:16;47.40;;;19.60;;
43580;SDS011;29175;51.030;4.606;2024-02-28T04:17:45;42.72;;;19.80;;
43580;SDS011;29175;51.030;4.606;2024-02-28T04:20:11;43.87;;;19.47;;
43580;SDS011;29175;51.030;4.606;2024-02-28T04:22:39;49.75;;;19.45;;
43580;SDS011;29175;51.030;4.606;2024-02-28T04:25:05;46.35;;;19.73;;
43580;SDS011;29175;51.030;4.606;2024-02-28T04:27:37;43.83;;;19.33;;
43580;SDS011;29175;51.030;4.606;2024-02-28T04:30:04;48.60;;;19.13;;
43580;SDS011;29175;51.030;4.606;2024-02-28T04:32:31;44.20;;;19.40;;
43580;SDS011;29175;51.030;4.606;2024-02-28T04:34:58;51.90;;;21.13;;
43580;SDS011;29175;51.030;4.606;2024-02-28T04:37:25;57.10;;;21.33;;
43580;SDS011;29175;51.030;4.606;2024-02-28T04:39:52;55.70;;;21.33;;
43580;SDS011;29175;51.030;4.606;2024-02-28T04:42:18;57.95;;;21.80;;
43580;SDS011;29175;51.030;4.606;2024-02-28T04:44:46;58.92;;;20.38;;
43580;SDS011;29175;51.030;4.606;2024-02-28T04:47:17;54.17;;;20.65;;
43580;SDS011;29175;51.030;4.606;2024-02-28T04:49:43;47.97;;;19.35;;
43580;SDS011;29175;51.030;4.606;2024-02-28T04:52:10;59.88;;;21.40;;
43580;SDS011;29175;51.030;4.606;2024-02-28T04:54:39;46.58;;;19.20;;
43580;SDS011;29175;51.030;4.606;2024-02-28T04:59:35;57.83;;;21.30;;
43580;SDS011;29175;51.030;4.606;2024-02-28T05:02:01;60.53;;;20.52;;
43580;SDS011;29175;51.030;4.606;2024-02-28T05:04:27;52.00;;;20.35;;
43580;SDS011;29175;51.030;4.606;2024-02-28T05:06:52;50.40;;;20.05;;
43580;SDS011;29175;51.030;4.606;2024-02-28T05:11:47;48.37;;;19.73;;
43580;SDS011;29175;51.030;4.606;2024-02-28T05:14:14;51.78;;;20.17;;
43580;SDS011;29175;51.030;4.606;2024-02-28T05:16:42;48.25;;;19.52;;
43580;SDS011;29175;51.030;4.606;2024-02-28T05:19:09;51.85;;;19.80;;
43580;SDS011;29175;51.030;4.606;2024-02-28T05:21:42;49.60;;;19.95;;
43580;SDS011;29175;51.030;4.606;2024-02-28T05:24:09;54.67;;;20.30;;
43580;SDS011;29175;51.030;4.606;2024-02-28T05:26:35;66.53;;;21.60;;
43580;SDS011;29175;51.030;4.606;2024-02-28T05:29:05;52.75;;;21.42;;
43580;SDS011;29175;51.030;4.606;2024-02-28T05:31:32;34.10;;;14.63;;
43580;SDS011;29175;51.030;4.606;2024-02-28T05:34:00;53.83;;;21.00;;
43580;SDS011;29175;51.030;4.606;2024-02-28T05:36:32;52.22;;;20.25;;
43580;SDS011;29175;51.030;4.606;2024-02-28T05:39:00;56.13;;;21.33;;
43580;SDS011;29175;51.030;4.606;2024-02-28T05:41:32;58.58;;;21.45;;
43580;SDS011;29175;51.030;4.606;2024-02-28T05:43:59;47.10;;;19.75;;
43580;SDS011;29175;51.030;4.606;2024-02-28T05:46:25;62.78;;;22.08;;
43580;SDS011;29175;51.030;4.606;2024-02-28T05:48:52;57.78;;;22.23;;
43580;SDS011;29175;51.030;4.606;2024-02-28T05:51:19;58.53;;;21.88;;
43580;SDS011;29175;51.030;4.606;2024-02-28T05:53:45;58.90;;;22.33;;
43580;SDS011;29175;51.030;4.606;2024-02-28T05:56:12;57.25;;;22.13;;
43580;SDS011;29175;51.030;4.606;2024-02-28T05:58:44;56.88;;;21.90;;
43580;SDS011;29175;51.030;4.606;2024-02-28T06:01:10;59.53;;;20.75;;
43580;SDS011;29175;51.030;4.606;2024-02-28T06:03:36;49.15;;;20.00;;
43580;SDS011;29175;51.030;4.606;2024-02-28T06:06:03;49.95;;;19.08;;
43580;SDS011;29175;51.030;4.606;2024-02-28T06:08:34;60.53;;;21.90;;
43580;SDS011;29175;51.030;4.606;2024-02-28T06:11:03;61.13;;;22.27;;
43580;SDS011;29175;51.030;4.606;2024-02-28T06:13:29;65.57;;;22.52;;
43580;SDS011;29175;51.030;4.606;2024-02-28T06:15:55;54.05;;;21.20;;
43580;SDS011;29175;51.030;4.606;2024-02-28T06:18:28;59.15;;;21.30;;
43580;SDS011;29175;51.030;4.606;2024-02-28T06:20:57;71.07;;;23.33;;
43580;SDS011;29175;51.030;4.606;2024-02-28T06:23:23;64.93;;;23.65;;
43580;SDS011;29175;51.030;4.606;2024-02-28T06:25:51;61.72;;;23.13;;
43580;SDS011;29175;51.030;4.606;2024-02-28T06:28:18;62.05;;;22.95;;
43580;SDS011;29175;51.030;4.606;2024-02-28T06:30:44;59.38;;;22.48;;
43580;SDS011;29175;51.030;4.606;2024-02-28T06:33:14;60.97;;;22.50;;
43580;SDS011;29175;51.030;4.606;2024-02-28T06:35:40;60.28;;;22.52;;
43580;SDS011;29175;51.030;4.606;2024-02-28T06:38:06;53.85;;;21.52;;
43580;SDS011;29175;51.030;4.606;2024-02-28T06:40:34;66.57;;;21.88;;
43580;SDS011;29175;51.030;4.606;2024-02-28T06:43:00;59.95;;;21.50;;
43580;SDS011;29175;51.030;4.606;2024-02-28T06:45:27;65.13;;;22.02;;
43580;SDS011;29175;51.030;4.606;2024-02-28T06:47:53;58.65;;;22.75;;
43580;SDS011;29175;51.030;4.606;2024-02-28T06:50:20;57.67;;;21.90;;
43580;SDS011;29175;51.030;4.606;2024-02-28T06:52:45;62.67;;;21.80;;
43580;SDS011;29175;51.030;4.606;2024-02-28T06:55:12;64.30;;;23.23;;
43580;SDS011;29175;51.030;4.606;2024-02-28T06:57:45;61.35;;;20.95;;
43580;SDS011;29175;51.030;4.606;2024-02-28T07:00:11;57.40;;;21.65;;
43580;SDS011;29175;51.030;4.606;2024-02-28T07:02:39;61.60;;;20.45;;
43580;SDS011;29175;51.030;4.606;2024-02-28T07:05:04;64.30;;;21.45;;
43580;SDS011;29175;51.030;4.606;2024-02-28T07:07:33;56.30;;;21.58;;
43580;SDS011;29175;51.030;4.606;2024-02-28T07:09:59;58.22;;;21.58;;
43580;SDS011;29175;51.030;4.606;2024-02-28T07:12:27;56.35;;;20.77;;
43580;SDS011;29175;51.030;4.606;2024-02-28T07:14:54;60.77;;;22.03;;
43580;SDS011;29175;51.030;4.606;2024-02-28T07:17:22;57.13;;;22.48;;
43580;SDS011;29175;51.030;4.606;2024-02-28T07:19:48;55.92;;;21.17;;
43580;SDS011;29175;51.030;4.606;2024-02-28T07:22:15;60.03;;;21.33;;
43580;SDS011;29175;51.030;4.606;2024-02-28T07:27:13;61.67;;;23.55;;
43580;SDS011;29175;51.030;4.606;2024-02-28T07:29:40;43.17;;;17.17;;
43580;SDS011;29175;51.030;4.606;2024-02-28T07:32:06;70.25;;;22.73;;
43580;SDS011;29175;51.030;4.606;2024-02-28T07:34:33;66.60;;;23.23;;
43580;SDS011;29175;51.030;4.606;2024-02-28T07:37:00;62.40;;;22.75;;
43580;SDS011;29175;51.030;4.606;2024-02-28T07:39:26;70.13;;;24.40;;
43580;SDS011;29175;51.030;4.606;2024-02-28T07:41:52;62.47;;;24.27;;
43580;SDS011;29175;51.030;4.606;2024-02-28T07:44:19;59.50;;;23.73;;
43580;SDS011;29175;51.030;4.606;2024-02-28T07:46:44;73.97;;;25.83;;
43580;SDS011;29175;51.030;4.606;2024-02-28T07:49:11;66.57;;;24.40;;
43580;SDS011;29175;51.030;4.606;2024-02-28T07:51:39;68.50;;;24.17;;
43580;SDS011;29175;51.030;4.606;2024-02-28T07:54:06;81.45;;;27.27;;
43580;SDS011;29175;51.030;4.606;2024-02-28T07:56:33;64.68;;;23.83;;
43580;SDS011;29175;51.030;4.606;2024-02-28T07:59:00;55.35;;;24.00;;
43580;SDS011;29175;51.030;4.606;2024-02-28T08:01:27;68.38;;;23.75;;
43580;SDS011;29175;51.030;4.606;2024-02-28T08:03:54;74.43;;;25.67;;
43580;SDS011;29175;51.030;4.606;2024-02-28T08:06:21;68.43;;;26.33;;
43580;SDS011;29175;51.030;4.606;2024-02-28T08:08:49;79.95;;;25.85;;
43580;SDS011;29175;51.030;4.606;2024-02-28T08:11:15;70.32;;;25.05;;
43580;SDS011;29175;51.030;4.606;2024-02-28T08:13:40;60.72;;;24.67;;
43580;SDS011;29175;51.030;4.606;2024-02-28T08:16:07;61.63;;;23.35;;
43580;SDS011;29175;51.030;4.606;2024-02-28T08:18:34;61.88;;;22.60;;
43580;SDS011;29175;51.030;4.606;2024-02-28T08:21:00;61.20;;;23.50;;
43580;SDS011;29175;51.030;4.606;2024-02-28T08:23:27;65.03;;;23.40;;
43580;SDS011;29175;51.030;4.606;2024-02-28T08:25:53;62.85;;;23.10;;
43580;SDS011;29175;51.030;4.606;2024-02-28T08:28:20;73.90;;;24.25;;
43580;SDS011;29175;51.030;4.606;2024-02-28T08:30:46;64.13;;;22.65;;
43580;SDS011;29175;51.030;4.606;2024-02-28T08:33:19;57.42;;;23.08;;
43580;SDS011;29175;51.030;4.606;2024-02-28T08:35:48;71.32;;;24.75;;
43580;SDS011;29175;51.030;4.606;2024-02-28T08:38:16;63.60;;;23.70;;
43580;SDS011;29175;51.030;4.606;2024-02-28T08:40:42;61.38;;;23.75;;
43580;SDS011;29175;51.030;4.606;2024-02-28T08:43:09;68.15;;;24.80;;
43580;SDS011;29175;51.030;4.606;2024-02-28T08:45:35;67.22;;;23.83;;
43580;SDS011;29175;51.030;4.606;2024-02-28T08:48:02;58.67;;;22.83;;
43580;SDS011;29175;51.030;4.606;2024-02-28T08:50:28;62.03;;;22.38;;
43580;SDS011;29175;51.030;4.606;2024-02-28T08:52:54;64.50;;;24.48;;
43580;SDS011;29175;51.030;4.606;2024-02-28T08:55:21;66.78;;;22.65;;
43580;SDS011;29175;51.030;4.606;2024-02-28T08:57:49;68.53;;;23.00;;
43580;SDS011;29175;51.030;4.606;2024-02-28T09:00:15;65.57;;;23.83;;
43580;SDS011;29175;51.030;4.606;2024-02-28T09:02:43;71.30;;;25.23;;
43580;SDS011;29175;51.030;4.606;2024-02-28T09:05:12;74.90;;;23.70;;
43580;SDS011;29175;51.030;4.606;2024-02-28T09:07:38;61.45;;;22.25;;
43580;SDS011;29175;51.030;4.606;2024-02-28T09:10:05;64.10;;;22.42;;
43580;SDS011;29175;51.030;4.606;2024-02-28T09:12:31;64.35;;;22.95;;
43580;SDS011;29175;51.030;4.606;2024-02-28T09:14:57;70.78;;;22.02;;
43580;SDS011;29175;51.030;4.606;2024-02-28T09:17:26;58.67;;;21.00;;
43580;SDS011;29175;51.030;4.606;2024-02-28T09:19:54;65.70;;;22.10;;
43580;SDS011;29175;51.030;4.606;2024-02-28T09:22:23;58.90;;;20.42;;
43580;SDS011;29175;51.030;4.606;2024-02-28T09:24:51;65.13;;;22.10;;
43580;SDS011;29175;51.030;4.606;2024-02-28T09:27:19;56.25;;;20.83;;
43580;SDS011;29175;51.030;4.606;2024-02-28T09:29:46;69.03;;;22.02;;
43580;SDS011;29175;51.030;4.606;2024-02-28T09:32:13;65.93;;;21.35;;
43580;SDS011;29175;51.030;4.606;2024-02-28T09:34:41;60.72;;;22.08;;
43580;SDS011;29175;51.030;4.606;2024-02-28T09:37:07;56.30;;;20.48;;
43580;SDS011;29175;51.030;4.606;2024-02-28T09:39:34;64.07;;;20.95;;
43580;SDS011;29175;51.030;4.606;2024-02-28T09:42:00;78.28;;;21.63;;
43580;SDS011;29175;51.030;4.606;2024-02-28T09:44:27;62.28;;;18.85;;
43580;SDS011;29175;51.030;4.606;2024-02-28T09:46:54;62.05;;;20.63;;
43580;SDS011;29175;51.030;4.606;2024-02-28T09:49:21;55.90;;;19.75;;
43580;SDS011;29175;51.030;4.606;2024-02-28T09:51:50;64.70;;;20.42;;
43580;SDS011;29175;51.030;4.606;2024-02-28T09:54:18;61.10;;;19.25;;
43580;SDS011;29175;51.030;4.606;2024-02-28T09:56:47;60.15;;;21.30;;
43580;SDS011;29175;51.030;4.606;2024-02-28T09:59:13;62.13;;;20.20;;
43580;SDS011;29175;51.030;4.606;2024-02-28T10:01:44;66.65;;;18.67;;
43580;SDS011;29175;51.030;4.606;2024-02-28T10:04:18;52.85;;;18.27;;
43580;SDS011;29175;51.030;4.606;2024-02-28T10:09:15;49.42;;;18.92;;
43580;SDS011;29175;51.030;4.606;2024-02-28T10:11:41;56.28;;;18.30;;
43580;SDS011;29175;51.030;4.606;2024-02-28T10:14:09;60.75;;;18.02;;
43580;SDS011;29175;51.030;4.606;2024-02-28T10:16:35;55.35;;;18.60;;
43580;SDS011;29175;51.030;4.606;2024-02-28T10:19:04;61.22;;;17.60;;
43580;SDS011;29175;51.030;4.606;2024-02-28T10:21:30;48.60;;;17.25;;
43580;SDS011;29175;51.030;4.606;2024-02-28T10:24:01;54.97;;;17.15;;
43580;SDS011;29175;51.030;4.606;2024-02-28T10:26:28;55.05;;;19.30;;
43580;SDS011;29175;51.030;4.606;2024-02-28T10:28:57;57.25;;;19.50;;
43580;SDS011;29175;51.030;4.606;2024-02-28T10:31:26;57.92;;;18.38;;
43580;SDS011;29175;51.030;4.606;2024-02-28T10:33:52;47.27;;;17.73;;
43580;SDS011;29175;51.030;4.606;2024-02-28T10:36:18;48.78;;;16.75;;
43580;SDS011;29175;51.030;4.606;2024-02-28T10:38:46;54.67;;;15.90;;
43580;SDS011;29175;51.030;4.606;2024-02-28T10:41:13;47.33;;;15.90;;
43580;SDS011;29175;51.030;4.606;2024-02-28T10:43:40;42.75;;;15.55;;
43580;SDS011;29175;51.030;4.606;2024-02-28T10:46:07;44.83;;;16.00;;
43580;SDS011;29175;51.030;4.606;2024-02-28T10:48:35;45.95;;;15.07;;
43580;SDS011;29175;51.030;4.606;2024-02-28T10:51:02;48.33;;;16.30;;
43580;SDS011;29175;51.030;4.606;2024-02-28T10:53:36;47.38;;;16.42;;
43580;SDS011;29175;51.030;4.606;2024-02-28T10:56:03;48.88;;;16.40;;
43580;SDS011;29175;51.030;4.606;2024-02-28T10:58:36;47.47;;;15.90;;
43580;SDS011;29175;51.030;4.606;2024-02-28T11:01:10;46.97;;;16.45;;
43580;SDS011;29175;51.030;4.606;2024-02-28T11:03:36;55.47;;;15.98;;
43580;SDS011;29175;51.030;4.606;2024-02-28T11:06:02;46.67;;;14.93;;
43580;SDS011;29175;51.030;4.606;2024-02-28T11:08:29;50.15;;;15.30;;
43580;SDS011;29175;51.030;4.606;2024-02-28T11:10:58;46.30;;;13.82;;
43580;SDS011;29175;51.030;4.606;2024-02-28T11:13:30;42.22;;;14.65;;
43580;SDS011;29175;51.030;4.606;2024-02-28T11:16:09;41.08;;;15.75;;
43580;SDS011;29175;51.030;4.606;2024-02-28T11:18:36;51.15;;;14.98;;
43580;SDS011;29175;51.030;4.606;2024-02-28T11:21:17;46.90;;;15.80;;
43580;SDS011;29175;51.030;4.606;2024-02-28T11:23:47;41.63;;;14.23;;
43580;SDS011;29175;51.030;4.606;2024-02-28T11:26:14;45.75;;;14.52;;
43580;SDS011;29175;51.030;4.606;2024-02-28T11:28:42;45.33;;;15.02;;
43580;SDS011;29175;51.030;4.606;2024-02-28T11:31:10;52.15;;;15.98;;
43580;SDS011;29175;51.030;4.606;2024-02-28T11:33:36;46.65;;;14.20;;
43580;SDS011;29175;51.030;4.606;2024-02-28T11:36:03;49.53;;;15.38;;
43580;SDS011;29175;51.030;4.606;2024-02-28T11:38:30;46.53;;;13.95;;
43580;SDS011;29175;51.030;4.606;2024-02-28T11:40:56;43.28;;;15.70;;
43580;SDS011;29175;51.030;4.606;2024-02-28T11:43:23;46.85;;;16.35;;
43580;SDS011;29175;51.030;4.606;2024-02-28T11:45:51;36.30;;;15.45;;
43580;SDS011;29175;51.030;4.606;2024-02-28T11:48:18;42.40;;;14.23;;
43580;SDS011;29175;51.030;4.606;2024-02-28T11:50:43;43.33;;;14.32;;
43580;SDS011;29175;51.030;4.606;2024-02-28T11:53:10;47.90;;;14.50;;
43580;SDS011;29175;51.030;4.606;2024-02-28T11:55:37;32.67;;;12.30;;
43580;SDS011;29175;51.030;4.606;2024-02-28T11:58:08;46.53;;;13.32;;
43580;SDS011;29175;51.030;4.606;2024-02-28T12:00:46;36.35;;;13.30;;
43580;SDS011;29175;51.030;4.606;2024-02-28T12:03:13;42.33;;;13.55;;
43580;SDS011;29175;51.030;4.606;2024-02-28T12:05:43;39.83;;;13.25;;
43580;SDS011;29175;51.030;4.606;2024-02-28T12:08:11;40.13;;;12.80;;
43580;SDS011;29175;51.030;4.606;2024-02-28T12:10:37;43.03;;;12.10;;
43580;SDS011;29175;51.030;4.606;2024-02-28T12:13:08;31.42;;;12.77;;
43580;SDS011;29175;51.030;4.606;2024-02-28T12:15:34;29.95;;;12.35;;
43580;SDS011;29175;51.030;4.606;2024-02-28T12:18:07;36.25;;;11.82;;
43580;SDS011;29175;51.030;4.606;2024-02-28T12:20:35;32.45;;;12.18;;
43580;SDS011;29175;51.030;4.606;2024-02-28T12:23:03;31.48;;;11.93;;
43580;SDS011;29175;51.030;4.606;2024-02-28T12:25:31;37.92;;;11.45;;
43580;SDS011;29175;51.030;4.606;2024-02-28T12:28:00;28.35;;;10.63;;
43580;SDS011;29175;51.030;4.606;2024-02-28T12:30:26;29.08;;;10.68;;
43580;SDS011;29175;51.030;4.606;2024-02-28T12:32:54;30.17;;;11.05;;
43580;SDS011;29175;51.030;4.606;2024-02-28T12:35:20;26.42;;;10.77;;
43580;SDS011;29175;51.030;4.606;2024-02-28T12:37:46;22.83;;;10.20;;
43580;SDS011;29175;51.030;4.606;2024-02-28T12:40:13;24.63;;;10.30;;
43580;SDS011;29175;51.030;4.606;2024-02-28T12:42:42;26.85;;;9.40;;
43580;SDS011;29175;51.030;4.606;2024-02-28T12:45:08;22.98;;;9.20;;
43580;SDS011;29175;51.030;4.606;2024-02-28T12:47:35;26.58;;;10.32;;
43580;SDS011;29175;51.030;4.606;2024-02-28T12:50:02;25.77;;;9.27;;
43580;SDS011;29175;51.030;4.606;2024-02-28T12:52:29;28.08;;;8.77;;
43580;SDS011;29175;51.030;4.606;2024-02-28T12:54:55;22.02;;;8.73;;
43580;SDS011;29175;51.030;4.606;2024-02-28T12:57:22;23.48;;;9.30;;
43580;SDS011;29175;51.030;4.606;2024-02-28T12:59:48;20.75;;;8.38;;
43580;SDS011;29175;51.030;4.606;2024-02-28T13:02:15;24.10;;;8.95;;
43580;SDS011;29175;51.030;4.606;2024-02-28T13:04:42;25.17;;;9.75;;
43580;SDS011;29175;51.030;4.606;2024-02-28T13:07:08;26.08;;;9.90;;
43580;SDS011;29175;51.030;4.606;2024-02-28T13:09:35;26.13;;;10.35;;
43580;SDS011;29175;51.030;4.606;2024-02-28T13:12:00;32.08;;;9.75;;
43580;SDS011;29175;51.030;4.606;2024-02-28T13:14:27;23.98;;;9.27;;
43580;SDS011;29175;51.030;4.606;2024-02-28T13:16:52;23.55;;;9.13;;
43580;SDS011;29175;51.030;4.606;2024-02-28T13:19:20;23.92;;;9.00;;
43580;SDS011;29175;51.030;4.606;2024-02-28T13:21:46;21.50;;;8.68;;
43580;SDS011;29175;51.030;4.606;2024-02-28T13:24:13;21.77;;;8.60;;
43580;SDS011;29175;51.030;4.606;2024-02-28T13:26:40;19.98;;;8.93;;
43580;SDS011;29175;51.030;4.606;2024-02-28T13:29:07;23.05;;;9.10;;
43580;SDS011;29175;51.030;4.606;2024-02-28T13:31:34;18.92;;;8.57;;
43580;SDS011;29175;51.030;4.606;2024-02-28T13:34:00;27.73;;;9.77;;
43580;SDS011;29175;51.030;4.606;2024-02-28T13:36:28;17.15;;;7.75;;
43580;SDS011;29175;51.030;4.606;2024-02-28T13:38:58;20.05;;;8.18;;
43580;SDS011;29175;51.030;4.606;2024-02-28T13:41:24;18.05;;;8.43;;
43580;SDS011;29175;51.030;4.606;2024-02-28T13:43:49;17.90;;;7.93;;
43580;SDS011;29175;51.030;4.606;2024-02-28T13:46:16;17.65;;;7.60;;
43580;SDS011;29175;51.030;4.606;2024-02-28T13:48:44;17.60;;;7.95;;
43580;SDS011;29175;51.030;4.606;2024-02-28T13:51:11;17.67;;;7.40;;
43580;SDS011;29175;51.030;4.606;2024-02-28T13:53:39;20.65;;;7.35;;
43580;SDS011;29175;51.030;4.606;2024-02-28T13:56:05;17.25;;;7.78;;
43580;SDS011;29175;51.030;4.606;2024-02-28T13:58:32;21.02;;;8.20;;
43580;SDS011;29175;51.030;4.606;2024-02-28T14:00:59;15.98;;;7.15;;
43580;SDS011;29175;51.030;4.606;2024-02-28T14:03:27;16.75;;;7.60;;
43580;SDS011;29175;51.030;4.606;2024-02-28T14:05:55;16.23;;;6.93;;
43580;SDS011;29175;51.030;4.606;2024-02-28T14:08:22;15.38;;;6.97;;
43580;SDS011;29175;51.030;4.606;2024-02-28T14:10:49;16.45;;;6.50;;
43580;SDS011;29175;51.030;4.606;2024-02-28T14:13:16;13.13;;;5.57;;
43580;SDS011;29175;51.030;4.606;2024-02-28T14:15:45;18.95;;;6.65;;
43580;SDS011;29175;51.030;4.606;2024-02-28T14:18:12;23.33;;;5.15;;
43580;SDS011;29175;51.030;4.606;2024-02-28T14:20:38;9.48;;;5.25;;
43580;SDS011;29175;51.030;4.606;2024-02-28T14:23:04;12.38;;;5.32;;
43580;SDS011;29175;51.030;4.606;2024-02-28T14:25:32;13.68;;;5.22;;
43580;SDS011;29175;51.030;4.606;2024-02-28T14:28:01;13.75;;;5.18;;
43580;SDS011;29175;51.030;4.606;2024-02-28T14:30:27;9.27;;;4.97;;
43580;SDS011;29175;51.030;4.606;2024-02-28T14:32:53;17.50;;;4.75;;
43580;SDS011;29175;51.030;4.606;2024-02-28T14:35:21;9.00;;;4.50;;
43580;SDS011;29175;51.030;4.606;2024-02-28T14:37:49;11.15;;;4.20;;
43580;SDS011;29175;51.030;4.606;2024-02-28T14:40:18;9.05;;;4.28;;